sensor_id;sensor_type;location;lat;lon;timestamp;temperature;humidity
47090;DHT22;32840;52.516;13.294;2024-02-16T00:01:39;12.20;99.90
47090;DHT22;32840;52.516;13.294;2024-02-16T00:04:24;12.10;99.90
47090;DHT22;32840;52.516;13.294;2024-02-16T00:07:10;12.10;99.90
47090;DHT22;32840;52.516;13.294;2024-02-16T00:10:00;12.10;99.90
47090;DHT22;32840;52.516;13.294;2024-02-16T00:12:45;12.10;99.90
47090;DHT22;32840;52.516;13.294;2024-02-16T00:15:32;12.10;99.90
47090;DHT22;32840;52.516;13.294;2024-02-16T00:18:17;12.10;99.90
47090;DHT22;32840;52.516;13.294;2024-02-16T00:21:02;12.10;99.90
47090;DHT22;32840;52.516;13.294;2024-02-16T00:23:53;12.10;99.90
47090;DHT22;32840;52.516;13.294;2024-02-16T00:26:41;12.00;99.90
47090;DHT22;32840;52.516;13.294;2024-02-16T00:29:30;11.90;99.90
47090;DHT22;32840;52.516;13.294;2024-02-16T00:32:19;12.00;99.90
47090;DHT22;32840;52.516;13.294;2024-02-16T00:35:18;12.00;99.90
47090;DHT22;32840;52.516;13.294;2024-02-16T00:38:04;12.00;99.90
47090;DHT22;32840;52.516;13.294;2024-02-16T00:40:48;11.90;99.90
47090;DHT22;32840;52.516;13.294;2024-02-16T00:43:40;11.90;99.90
47090;DHT22;32840;52.516;13.294;2024-02-16T00:46:25;11.90;99.90
47090;DHT22;32840;52.516;13.294;2024-02-16T00:49:20;11.90;99.90
47090;DHT22;32840;52.516;13.294;2024-02-16T00:52:05;11.90;99.90
47090;DHT22;32840;52.516;13.294;2024-02-16T00:54:54;11.90;99.90
47090;DHT22;32840;52.516;13.294;2024-02-16T00:57:50;11.90;99.90
47090;DHT22;32840;52.516;13.294;2024-02-16T01:00:35;11.90;99.90
47090;DHT22;32840;52.516;13.294;2024-02-16T01:03:20;11.80;99.90
47090;DHT22;32840;52.516;13.294;2024-02-16T01:06:34;11.90;99.90
47090;DHT22;32840;52.516;13.294;2024-02-16T01:09:43;11.90;99.90
47090;DHT22;32840;52.516;13.294;2024-02-16T01:12:28;11.80;99.90
47090;DHT22;32840;52.516;13.294;2024-02-16T01:15:15;11.80;99.90
47090;DHT22;32840;52.516;13.294;2024-02-16T01:18:01;11.80;99.90
47090;DHT22;32840;52.516;13.294;2024-02-16T01:20:46;11.80;99.90
47090;DHT22;32840;52.516;13.294;2024-02-16T01:23:31;11.80;99.90
47090;DHT22;32840;52.516;13.294;2024-02-16T01:26:17;11.70;99.90
47090;DHT22;32840;52.516;13.294;2024-02-16T01:29:03;11.70;99.90
47090;DHT22;32840;52.516;13.294;2024-02-16T01:31:48;11.70;99.90
47090;DHT22;32840;52.516;13.294;2024-02-16T01:34:34;11.70;99.90
47090;DHT22;32840;52.516;13.294;2024-02-16T01:37:19;11.70;99.90
47090;DHT22;32840;52.516;13.294;2024-02-16T01:40:07;11.70;99.90
47090;DHT22;32840;52.516;13.294;2024-02-16T01:42:53;11.70;99.90
47090;DHT22;32840;52.516;13.294;2024-02-16T01:45:39;11.60;99.90
47090;DHT22;32840;52.516;13.294;2024-02-16T01:48:26;11.60;99.90
47090;DHT22;32840;52.516;13.294;2024-02-16T01:51:12;11.70;99.90
47090;DHT22;32840;52.516;13.294;2024-02-16T01:54:01;11.70;99.90
47090;DHT22;32840;52.516;13.294;2024-02-16T01:56:49;11.60;99.90
47090;DHT22;32840;52.516;13.294;2024-02-16T01:59:36;11.60;99.90
47090;DHT22;32840;52.516;13.294;2024-02-16T02:02:21;11.60;99.90
47090;DHT22;32840;52.516;13.294;2024-02-16T02:05:07;11.60;99.90
47090;DHT22;32840;52.516;13.294;2024-02-16T02:07:51;11.60;99.90
47090;DHT22;32840;52.516;13.294;2024-02-16T02:10:37;11.60;99.90
47090;DHT22;32840;52.516;13.294;2024-02-16T02:13:22;11.50;99.90
47090;DHT22;32840;52.516;13.294;2024-02-16T02:16:10;11.50;99.90
47090;DHT22;32840;52.516;13.294;2024-02-16T02:18:57;11.50;99.90
47090;DHT22;32840;52.516;13.294;2024-02-16T02:21:55;11.50;99.90
47090;DHT22;32840;52.516;13.294;2024-02-16T02:24:41;11.50;99.90
47090;DHT22;32840;52.516;13.294;2024-02-16T02:27:26;11.40;99.90
47090;DHT22;32840;52.516;13.294;2024-02-16T02:30:11;11.40;99.90
47090;DHT22;32840;52.516;13.294;2024-02-16T02:32:56;11.40;99.90
47090;DHT22;32840;52.516;13.294;2024-02-16T02:35:42;11.40;99.90
47090;DHT22;32840;52.516;13.294;2024-02-16T02:38:27;11.30;99.90
47090;DHT22;32840;52.516;13.294;2024-02-16T02:41:16;11.40;99.90
47090;DHT22;32840;52.516;13.294;2024-02-16T02:44:04;11.40;99.90
47090;DHT22;32840;52.516;13.294;2024-02-16T02:46:49;11.40;99.90
47090;DHT22;32840;52.516;13.294;2024-02-16T02:49:34;11.40;99.90
47090;DHT22;32840;52.516;13.294;2024-02-16T02:52:21;11.40;99.90
47090;DHT22;32840;52.516;13.294;2024-02-16T02:55:06;11.40;99.90
47090;DHT22;32840;52.516;13.294;2024-02-16T02:57:54;11.40;99.90
47090;DHT22;32840;52.516;13.294;2024-02-16T03:00:39;11.40;99.90
47090;DHT22;32840;52.516;13.294;2024-02-16T03:03:27;11.40;99.90
47090;DHT22;32840;52.516;13.294;2024-02-16T03:06:21;11.40;99.90
47090;DHT22;32840;52.516;13.294;2024-02-16T03:09:06;11.40;99.90
47090;DHT22;32840;52.516;13.294;2024-02-16T03:11:51;11.40;99.90
47090;DHT22;32840;52.516;13.294;2024-02-16T03:14:37;11.40;99.90
47090;DHT22;32840;52.516;13.294;2024-02-16T03:17:23;11.40;99.90
47090;DHT22;32840;52.516;13.294;2024-02-16T03:20:09;11.40;99.90
47090;DHT22;32840;52.516;13.294;2024-02-16T03:22:56;11.40;99.90
47090;DHT22;32840;52.516;13.294;2024-02-16T03:25:41;11.40;99.90
47090;DHT22;32840;52.516;13.294;2024-02-16T03:28:26;11.30;99.90
47090;DHT22;32840;52.516;13.294;2024-02-16T03:31:18;11.40;99.90
47090;DHT22;32840;52.516;13.294;2024-02-16T03:34:04;11.30;99.90
47090;DHT22;32840;52.516;13.294;2024-02-16T03:36:50;11.40;99.90
47090;DHT22;32840;52.516;13.294;2024-02-16T03:39:36;11.30;99.90
47090;DHT22;32840;52.516;13.294;2024-02-16T03:42:21;11.30;99.90
47090;DHT22;32840;52.516;13.294;2024-02-16T03:45:06;11.30;99.90
47090;DHT22;32840;52.516;13.294;2024-02-16T03:47:51;11.30;99.90
47090;DHT22;32840;52.516;13.294;2024-02-16T03:50:39;11.30;99.90
47090;DHT22;32840;52.516;13.294;2024-02-16T03:53:24;11.20;99.90
47090;DHT22;32840;52.516;13.294;2024-02-16T03:56:11;11.30;99.90
47090;DHT22;32840;52.516;13.294;2024-02-16T03:58:56;11.20;99.90
47090;DHT22;32840;52.516;13.294;2024-02-16T04:01:42;11.20;99.90
47090;DHT22;32840;52.516;13.294;2024-02-16T04:04:28;11.10;99.90
47090;DHT22;32840;52.516;13.294;2024-02-16T04:07:13;11.10;99.90
47090;DHT22;32840;52.516;13.294;2024-02-16T04:09:58;11.10;99.90
47090;DHT22;32840;52.516;13.294;2024-02-16T04:12:43;11.10;99.90
47090;DHT22;32840;52.516;13.294;2024-02-16T04:15:28;11.10;99.90
47090;DHT22;32840;52.516;13.294;2024-02-16T04:18:14;11.20;99.90
47090;DHT22;32840;52.516;13.294;2024-02-16T04:20:59;11.20;99.90
47090;DHT22;32840;52.516;13.294;2024-02-16T04:23:45;11.10;99.90
47090;DHT22;32840;52.516;13.294;2024-02-16T04:26:31;11.10;99.90
47090;DHT22;32840;52.516;13.294;2024-02-16T04:29:17;11.10;99.90
47090;DHT22;32840;52.516;13.294;2024-02-16T04:32:02;11.20;99.90
47090;DHT22;32840;52.516;13.294;2024-02-16T04:34:47;11.20;99.90
47090;DHT22;32840;52.516;13.294;2024-02-16T04:37:33;11.20;99.90
47090;DHT22;32840;52.516;13.294;2024-02-16T04:40:19;11.20;99.90
47090;DHT22;32840;52.516;13.294;2024-02-16T04:43:04;11.20;99.90
47090;DHT22;32840;52.516;13.294;2024-02-16T04:45:50;11.20;99.90
47090;DHT22;32840;52.516;13.294;2024-02-16T04:48:35;11.20;99.90
47090;DHT22;32840;52.516;13.294;2024-02-16T04:51:21;11.20;99.90
47090;DHT22;32840;52.516;13.294;2024-02-16T04:54:05;11.20;99.90
47090;DHT22;32840;52.516;13.294;2024-02-16T04:56:58;11.20;99.90
47090;DHT22;32840;52.516;13.294;2024-02-16T04:59:43;11.10;99.90
47090;DHT22;32840;52.516;13.294;2024-02-16T05:02:31;11.20;99.90
47090;DHT22;32840;52.516;13.294;2024-02-16T05:05:17;11.10;99.90
47090;DHT22;32840;52.516;13.294;2024-02-16T05:08:06;11.10;99.90
47090;DHT22;32840;52.516;13.294;2024-02-16T05:10:51;11.10;99.90
47090;DHT22;32840;52.516;13.294;2024-02-16T05:13:37;11.00;99.90
47090;DHT22;32840;52.516;13.294;2024-02-16T05:16:24;11.00;99.90
47090;DHT22;32840;52.516;13.294;2024-02-16T05:19:09;10.90;99.90
47090;DHT22;32840;52.516;13.294;2024-02-16T05:21:54;10.90;99.90
47090;DHT22;32840;52.516;13.294;2024-02-16T05:24:39;10.90;99.90
47090;DHT22;32840;52.516;13.294;2024-02-16T05:27:24;10.90;99.90
47090;DHT22;32840;52.516;13.294;2024-02-16T05:30:10;10.90;99.90
47090;DHT22;32840;52.516;13.294;2024-02-16T05:32:57;10.90;99.90
47090;DHT22;32840;52.516;13.294;2024-02-16T05:35:43;10.80;99.90
47090;DHT22;32840;52.516;13.294;2024-02-16T05:38:30;10.90;99.90
47090;DHT22;32840;52.516;13.294;2024-02-16T05:41:28;10.80;99.90
47090;DHT22;32840;52.516;13.294;2024-02-16T05:44:17;10.80;99.90
47090;DHT22;32840;52.516;13.294;2024-02-16T05:47:07;10.80;99.90
47090;DHT22;32840;52.516;13.294;2024-02-16T05:49:56;10.90;99.90
47090;DHT22;32840;52.516;13.294;2024-02-16T05:52:45;10.90;99.90
47090;DHT22;32840;52.516;13.294;2024-02-16T05:55:36;10.80;99.90
47090;DHT22;32840;52.516;13.294;2024-02-16T05:58:21;10.90;99.90
47090;DHT22;32840;52.516;13.294;2024-02-16T06:01:07;10.80;99.90
47090;DHT22;32840;52.516;13.294;2024-02-16T06:03:57;10.90;99.90
47090;DHT22;32840;52.516;13.294;2024-02-16T06:06:45;10.80;99.90
47090;DHT22;32840;52.516;13.294;2024-02-16T06:09:31;10.80;99.90
47090;DHT22;32840;52.516;13.294;2024-02-16T06:12:19;10.80;99.90
47090;DHT22;32840;52.516;13.294;2024-02-16T06:15:24;10.80;99.90
47090;DHT22;32840;52.516;13.294;2024-02-16T06:18:21;10.80;99.90
47090;DHT22;32840;52.516;13.294;2024-02-16T06:21:06;10.70;99.90
47090;DHT22;32840;52.516;13.294;2024-02-16T06:23:51;10.80;99.90
47090;DHT22;32840;52.516;13.294;2024-02-16T06:26:37;10.80;99.90
47090;DHT22;32840;52.516;13.294;2024-02-16T06:29:22;10.80;99.90
47090;DHT22;32840;52.516;13.294;2024-02-16T06:32:07;10.80;99.90
47090;DHT22;32840;52.516;13.294;2024-02-16T06:35:37;10.80;99.90
47090;DHT22;32840;52.516;13.294;2024-02-16T06:42:36;10.80;99.90
47090;DHT22;32840;52.516;13.294;2024-02-16T06:45:22;10.80;99.90
47090;DHT22;32840;52.516;13.294;2024-02-16T06:48:13;10.80;99.90
47090;DHT22;32840;52.516;13.294;2024-02-16T06:50:58;10.80;99.90
47090;DHT22;32840;52.516;13.294;2024-02-16T06:53:43;10.90;99.90
47090;DHT22;32840;52.516;13.294;2024-02-16T06:56:29;10.90;99.90
47090;DHT22;32840;52.516;13.294;2024-02-16T06:59:16;10.90;99.90
47090;DHT22;32840;52.516;13.294;2024-02-16T07:02:01;10.90;99.90
47090;DHT22;32840;52.516;13.294;2024-02-16T07:04:47;11.00;99.90
47090;DHT22;32840;52.516;13.294;2024-02-16T07:07:32;11.00;99.90
47090;DHT22;32840;52.516;13.294;2024-02-16T07:10:28;11.10;99.90
47090;DHT22;32840;52.516;13.294;2024-02-16T07:13:13;11.10;99.90
47090;DHT22;32840;52.516;13.294;2024-02-16T07:16:11;11.10;99.90
47090;DHT22;32840;52.516;13.294;2024-02-16T07:19:10;11.20;99.90
47090;DHT22;32840;52.516;13.294;2024-02-16T07:21:56;11.20;99.90
47090;DHT22;32840;52.516;13.294;2024-02-16T07:24:42;11.20;99.90
47090;DHT22;32840;52.516;13.294;2024-02-16T07:27:31;11.30;99.90
47090;DHT22;32840;52.516;13.294;2024-02-16T07:30:18;11.30;99.90
47090;DHT22;32840;52.516;13.294;2024-02-16T07:33:06;11.40;99.90
47090;DHT22;32840;52.516;13.294;2024-02-16T07:35:55;11.40;99.90
47090;DHT22;32840;52.516;13.294;2024-02-16T07:38:40;11.50;99.90
47090;DHT22;32840;52.516;13.294;2024-02-16T07:41:27;11.50;99.90
47090;DHT22;32840;52.516;13.294;2024-02-16T07:44:15;11.50;99.90
47090;DHT22;32840;52.516;13.294;2024-02-16T07:46:59;11.50;99.90
47090;DHT22;32840;52.516;13.294;2024-02-16T07:50:03;11.50;99.90
47090;DHT22;32840;52.516;13.294;2024-02-16T07:52:51;11.60;99.90
47090;DHT22;32840;52.516;13.294;2024-02-16T07:55:38;11.70;99.90
47090;DHT22;32840;52.516;13.294;2024-02-16T07:58:26;11.70;99.90
47090;DHT22;32840;52.516;13.294;2024-02-16T08:01:14;11.80;99.90
47090;DHT22;32840;52.516;13.294;2024-02-16T08:04:01;11.90;99.90
47090;DHT22;32840;52.516;13.294;2024-02-16T08:06:56;11.90;99.90
47090;DHT22;32840;52.516;13.294;2024-02-16T08:09:44;11.90;99.90
47090;DHT22;32840;52.516;13.294;2024-02-16T08:12:30;11.90;99.90
47090;DHT22;32840;52.516;13.294;2024-02-16T08:15:21;11.90;99.90
47090;DHT22;32840;52.516;13.294;2024-02-16T08:18:10;12.00;99.90
47090;DHT22;32840;52.516;13.294;2024-02-16T08:20:57;12.10;99.90
47090;DHT22;32840;52.516;13.294;2024-02-16T08:23:44;12.20;99.90
47090;DHT22;32840;52.516;13.294;2024-02-16T08:26:38;12.20;99.90
47090;DHT22;32840;52.516;13.294;2024-02-16T08:29:23;12.30;99.90
47090;DHT22;32840;52.516;13.294;2024-02-16T08:32:11;12.40;99.90
47090;DHT22;32840;52.516;13.294;2024-02-16T08:35:06;12.40;99.90
47090;DHT22;32840;52.516;13.294;2024-02-16T08:37:58;12.40;99.90
47090;DHT22;32840;52.516;13.294;2024-02-16T08:40:43;12.40;99.90
47090;DHT22;32840;52.516;13.294;2024-02-16T08:43:33;12.40;99.90
47090;DHT22;32840;52.516;13.294;2024-02-16T08:46:22;12.50;99.90
47090;DHT22;32840;52.516;13.294;2024-02-16T08:49:13;12.40;99.90
47090;DHT22;32840;52.516;13.294;2024-02-16T08:52:46;12.40;99.90
47090;DHT22;32840;52.516;13.294;2024-02-16T08:55:47;12.60;99.90
47090;DHT22;32840;52.516;13.294;2024-02-16T08:58:34;12.60;99.90
47090;DHT22;32840;52.516;13.294;2024-02-16T09:01:36;12.70;99.90
47090;DHT22;32840;52.516;13.294;2024-02-16T09:04:23;12.80;99.90
47090;DHT22;32840;52.516;13.294;2024-02-16T09:07:08;12.80;99.90
47090;DHT22;32840;52.516;13.294;2024-02-16T09:09:57;12.90;99.90
47090;DHT22;32840;52.516;13.294;2024-02-16T09:12:43;12.90;99.90
47090;DHT22;32840;52.516;13.294;2024-02-16T09:15:29;12.80;99.90
47090;DHT22;32840;52.516;13.294;2024-02-16T09:18:15;12.90;99.90
47090;DHT22;32840;52.516;13.294;2024-02-16T09:21:05;12.90;99.90
47090;DHT22;32840;52.516;13.294;2024-02-16T09:23:58;13.00;99.90
47090;DHT22;32840;52.516;13.294;2024-02-16T09:26:49;13.20;99.90
47090;DHT22;32840;52.516;13.294;2024-02-16T09:29:34;13.30;99.90
47090;DHT22;32840;52.516;13.294;2024-02-16T09:32:21;13.40;99.90
47090;DHT22;32840;52.516;13.294;2024-02-16T09:35:30;13.60;99.90
47090;DHT22;32840;52.516;13.294;2024-02-16T09:38:28;13.70;99.90
47090;DHT22;32840;52.516;13.294;2024-02-16T09:41:13;13.80;99.90
47090;DHT22;32840;52.516;13.294;2024-02-16T09:44:01;13.90;99.90
47090;DHT22;32840;52.516;13.294;2024-02-16T09:46:54;14.00;99.90
47090;DHT22;32840;52.516;13.294;2024-02-16T09:49:40;14.10;99.90
47090;DHT22;32840;52.516;13.294;2024-02-16T09:52:26;14.10;99.90
47090;DHT22;32840;52.516;13.294;2024-02-16T09:55:18;14.20;99.90
47090;DHT22;32840;52.516;13.294;2024-02-16T09:58:03;14.20;99.90
47090;DHT22;32840;52.516;13.294;2024-02-16T10:01:27;14.30;99.90
47090;DHT22;32840;52.516;13.294;2024-02-16T10:04:19;14.30;99.90
47090;DHT22;32840;52.516;13.294;2024-02-16T10:07:12;14.40;99.90
47090;DHT22;32840;52.516;13.294;2024-02-16T10:10:01;14.40;99.90
47090;DHT22;32840;52.516;13.294;2024-02-16T10:13:13;14.40;99.90
47090;DHT22;32840;52.516;13.294;2024-02-16T10:16:22;14.40;99.90
47090;DHT22;32840;52.516;13.294;2024-02-16T10:19:09;14.30;99.90
47090;DHT22;32840;52.516;13.294;2024-02-16T10:22:09;14.30;99.90
47090;DHT22;32840;52.516;13.294;2024-02-16T10:25:12;14.40;99.90
47090;DHT22;32840;52.516;13.294;2024-02-16T10:28:13;14.40;99.90
47090;DHT22;32840;52.516;13.294;2024-02-16T10:31:14;14.50;99.90
47090;DHT22;32840;52.516;13.294;2024-02-16T10:34:15;14.60;99.90
47090;DHT22;32840;52.516;13.294;2024-02-16T10:37:13;14.70;99.90
47090;DHT22;32840;52.516;13.294;2024-02-16T10:40:07;14.60;99.90
47090;DHT22;32840;52.516;13.294;2024-02-16T10:43:03;14.70;99.90
47090;DHT22;32840;52.516;13.294;2024-02-16T10:46:25;14.70;99.90
47090;DHT22;32840;52.516;13.294;2024-02-16T10:49:51;14.70;99.90
47090;DHT22;32840;52.516;13.294;2024-02-16T10:52:39;14.70;99.90
47090;DHT22;32840;52.516;13.294;2024-02-16T10:55:28;14.70;99.90
47090;DHT22;32840;52.516;13.294;2024-02-16T10:58:13;14.60;99.90
47090;DHT22;32840;52.516;13.294;2024-02-16T11:01:09;14.70;99.90
47090;DHT22;32840;52.516;13.294;2024-02-16T11:04:03;14.60;99.90
47090;DHT22;32840;52.516;13.294;2024-02-16T11:06:58;14.70;99.90
47090;DHT22;32840;52.516;13.294;2024-02-16T11:09:46;14.70;99.90
47090;DHT22;32840;52.516;13.294;2024-02-16T11:12:48;14.70;99.90
47090;DHT22;32840;52.516;13.294;2024-02-16T11:16:08;14.70;99.90
47090;DHT22;32840;52.516;13.294;2024-02-16T11:19:04;14.70;99.90
47090;DHT22;32840;52.516;13.294;2024-02-16T11:22:26;14.80;99.90
47090;DHT22;32840;52.516;13.294;2024-02-16T11:25:36;14.70;99.90
47090;DHT22;32840;52.516;13.294;2024-02-16T11:28:33;14.60;99.90
47090;DHT22;32840;52.516;13.294;2024-02-16T11:31:31;14.60;99.90
47090;DHT22;32840;52.516;13.294;2024-02-16T11:34:25;14.70;99.90
47090;DHT22;32840;52.516;13.294;2024-02-16T11:37:16;14.80;99.90
47090;DHT22;32840;52.516;13.294;2024-02-16T11:40:21;14.80;99.90
47090;DHT22;32840;52.516;13.294;2024-02-16T11:43:34;15.10;99.90
47090;DHT22;32840;52.516;13.294;2024-02-16T11:46:34;15.30;99.90
47090;DHT22;32840;52.516;13.294;2024-02-16T11:49:37;15.50;99.90
47090;DHT22;32840;52.516;13.294;2024-02-16T11:52:23;15.70;99.90
47090;DHT22;32840;52.516;13.294;2024-02-16T11:55:35;15.70;99.90
47090;DHT22;32840;52.516;13.294;2024-02-16T12:07:09;16.10;99.90
47090;DHT22;32840;52.516;13.294;2024-02-16T12:10:35;16.20;99.90
47090;DHT22;32840;52.516;13.294;2024-02-16T12:13:57;16.30;99.90
47090;DHT22;32840;52.516;13.294;2024-02-16T12:18:26;16.40;99.90
47090;DHT22;32840;52.516;13.294;2024-02-16T12:21:56;16.40;99.90
47090;DHT22;32840;52.516;13.294;2024-02-16T12:25:10;16.40;99.90
47090;DHT22;32840;52.516;13.294;2024-02-16T12:28:24;16.40;99.90
47090;DHT22;32840;52.516;13.294;2024-02-16T12:31:47;16.30;99.90
47090;DHT22;32840;52.516;13.294;2024-02-16T12:34:43;16.30;99.90
47090;DHT22;32840;52.516;13.294;2024-02-16T12:37:42;16.40;99.90
47090;DHT22;32840;52.516;13.294;2024-02-16T12:40:59;16.50;99.90
47090;DHT22;32840;52.516;13.294;2024-02-16T12:44:34;16.50;99.90
47090;DHT22;32840;52.516;13.294;2024-02-16T12:47:27;16.60;99.90
47090;DHT22;32840;52.516;13.294;2024-02-16T12:50:48;16.60;99.90
47090;DHT22;32840;52.516;13.294;2024-02-16T12:53:49;16.70;99.90
47090;DHT22;32840;52.516;13.294;2024-02-16T13:00:15;16.70;99.90
47090;DHT22;32840;52.516;13.294;2024-02-16T13:03:25;16.70;99.90
47090;DHT22;32840;52.516;13.294;2024-02-16T13:06:12;16.70;99.90
47090;DHT22;32840;52.516;13.294;2024-02-16T13:09:02;16.70;99.90
47090;DHT22;32840;52.516;13.294;2024-02-16T13:12:11;16.70;99.90
47090;DHT22;32840;52.516;13.294;2024-02-16T13:15:18;16.70;99.90
47090;DHT22;32840;52.516;13.294;2024-02-16T13:29:17;16.60;99.90
47090;DHT22;32840;52.516;13.294;2024-02-16T13:32:32;16.60;99.90
47090;DHT22;32840;52.516;13.294;2024-02-16T13:35:22;16.60;99.90
47090;DHT22;32840;52.516;13.294;2024-02-16T13:38:13;16.60;99.90
47090;DHT22;32840;52.516;13.294;2024-02-16T13:41:21;16.50;99.90
47090;DHT22;32840;52.516;13.294;2024-02-16T13:44:07;16.50;99.90
47090;DHT22;32840;52.516;13.294;2024-02-16T13:46:55;16.40;99.90
47090;DHT22;32840;52.516;13.294;2024-02-16T13:49:46;16.40;99.90
47090;DHT22;32840;52.516;13.294;2024-02-16T13:52:32;16.40;99.90
47090;DHT22;32840;52.516;13.294;2024-02-16T13:55:20;16.40;99.90
47090;DHT22;32840;52.516;13.294;2024-02-16T13:58:06;16.50;99.90
47090;DHT22;32840;52.516;13.294;2024-02-16T14:00:59;16.50;99.90
47090;DHT22;32840;52.516;13.294;2024-02-16T14:03:44;16.50;99.90
47090;DHT22;32840;52.516;13.294;2024-02-16T14:06:31;16.50;99.90
47090;DHT22;32840;52.516;13.294;2024-02-16T14:09:24;16.50;99.90
47090;DHT22;32840;52.516;13.294;2024-02-16T14:12:34;16.50;99.90
47090;DHT22;32840;52.516;13.294;2024-02-16T14:15:20;16.50;99.90
47090;DHT22;32840;52.516;13.294;2024-02-16T14:18:11;16.50;99.90
47090;DHT22;32840;52.516;13.294;2024-02-16T14:20:56;16.50;99.90
47090;DHT22;32840;52.516;13.294;2024-02-16T14:23:41;16.50;99.90
47090;DHT22;32840;52.516;13.294;2024-02-16T14:26:52;16.50;99.90
47090;DHT22;32840;52.516;13.294;2024-02-16T14:29:41;16.50;99.90
47090;DHT22;32840;52.516;13.294;2024-02-16T14:32:26;16.40;99.90
47090;DHT22;32840;52.516;13.294;2024-02-16T14:35:12;16.40;99.90
47090;DHT22;32840;52.516;13.294;2024-02-16T14:37:57;16.40;99.90
47090;DHT22;32840;52.516;13.294;2024-02-16T14:40:44;16.40;99.90
47090;DHT22;32840;52.516;13.294;2024-02-16T14:43:30;16.40;99.90
47090;DHT22;32840;52.516;13.294;2024-02-16T14:46:19;16.40;99.90
47090;DHT22;32840;52.516;13.294;2024-02-16T14:49:28;16.40;99.90
47090;DHT22;32840;52.516;13.294;2024-02-16T14:52:16;16.50;99.90
47090;DHT22;32840;52.516;13.294;2024-02-16T14:55:09;16.40;99.90
47090;DHT22;32840;52.516;13.294;2024-02-16T14:57:54;16.40;99.90
47090;DHT22;32840;52.516;13.294;2024-02-16T15:00:40;16.40;99.90
47090;DHT22;32840;52.516;13.294;2024-02-16T15:03:26;16.40;99.90
47090;DHT22;32840;52.516;13.294;2024-02-16T15:06:16;16.40;99.90
47090;DHT22;32840;52.516;13.294;2024-02-16T15:09:11;16.40;99.90
47090;DHT22;32840;52.516;13.294;2024-02-16T15:11:57;16.40;99.90
47090;DHT22;32840;52.516;13.294;2024-02-16T15:14:46;16.40;99.90
47090;DHT22;32840;52.516;13.294;2024-02-16T15:17:31;16.30;99.90
47090;DHT22;32840;52.516;13.294;2024-02-16T15:20:16;16.30;99.90
47090;DHT22;32840;52.516;13.294;2024-02-16T15:23:05;16.20;99.90
47090;DHT22;32840;52.516;13.294;2024-02-16T15:25:51;16.20;99.90
47090;DHT22;32840;52.516;13.294;2024-02-16T15:28:36;16.20;99.90
47090;DHT22;32840;52.516;13.294;2024-02-16T15:31:23;16.10;99.90
47090;DHT22;32840;52.516;13.294;2024-02-16T15:34:11;16.20;99.90
47090;DHT22;32840;52.516;13.294;2024-02-16T15:37:05;16.10;99.90
47090;DHT22;32840;52.516;13.294;2024-02-16T15:40:15;16.10;99.90
47090;DHT22;32840;52.516;13.294;2024-02-16T15:43:07;16.10;99.90
47090;DHT22;32840;52.516;13.294;2024-02-16T15:49:31;16.10;99.90
47090;DHT22;32840;52.516;13.294;2024-02-16T15:52:36;16.10;99.90
47090;DHT22;32840;52.516;13.294;2024-02-16T15:55:33;16.10;99.90
47090;DHT22;32840;52.516;13.294;2024-02-16T15:58:23;16.00;99.90
47090;DHT22;32840;52.516;13.294;2024-02-16T16:01:12;16.00;99.90
47090;DHT22;32840;52.516;13.294;2024-02-16T16:04:08;16.00;99.90
47090;DHT22;32840;52.516;13.294;2024-02-16T16:07:08;16.00;99.90
47090;DHT22;32840;52.516;13.294;2024-02-16T16:10:19;16.00;99.90
47090;DHT22;32840;52.516;13.294;2024-02-16T16:13:04;16.00;99.90
47090;DHT22;32840;52.516;13.294;2024-02-16T16:15:58;16.00;99.90
47090;DHT22;32840;52.516;13.294;2024-02-16T16:19:08;15.90;99.90
47090;DHT22;32840;52.516;13.294;2024-02-16T16:21:52;15.90;99.90
47090;DHT22;32840;52.516;13.294;2024-02-16T16:24:45;15.90;99.90
47090;DHT22;32840;52.516;13.294;2024-02-16T16:27:30;15.90;99.90
47090;DHT22;32840;52.516;13.294;2024-02-16T16:30:15;15.90;99.90
47090;DHT22;32840;52.516;13.294;2024-02-16T16:33:00;15.80;99.90
47090;DHT22;32840;52.516;13.294;2024-02-16T16:35:46;15.80;99.90
47090;DHT22;32840;52.516;13.294;2024-02-16T16:38:36;15.80;99.90
47090;DHT22;32840;52.516;13.294;2024-02-16T16:41:29;15.90;99.90
47090;DHT22;32840;52.516;13.294;2024-02-16T16:44:22;15.80;99.90
47090;DHT22;32840;52.516;13.294;2024-02-16T16:47:11;15.80;99.90
47090;DHT22;32840;52.516;13.294;2024-02-16T16:50:11;15.70;99.90
47090;DHT22;32840;52.516;13.294;2024-02-16T16:52:58;15.70;99.90
47090;DHT22;32840;52.516;13.294;2024-02-16T16:55:45;15.70;99.90
47090;DHT22;32840;52.516;13.294;2024-02-16T16:58:31;15.70;99.90
47090;DHT22;32840;52.516;13.294;2024-02-16T17:01:16;15.70;99.90
47090;DHT22;32840;52.516;13.294;2024-02-16T17:04:01;15.70;99.90
47090;DHT22;32840;52.516;13.294;2024-02-16T17:06:48;15.60;99.90
47090;DHT22;32840;52.516;13.294;2024-02-16T17:09:45;15.60;99.90
47090;DHT22;32840;52.516;13.294;2024-02-16T17:12:37;15.50;99.90
47090;DHT22;32840;52.516;13.294;2024-02-16T17:15:26;15.50;99.90
47090;DHT22;32840;52.516;13.294;2024-02-16T17:18:16;15.50;99.90
47090;DHT22;32840;52.516;13.294;2024-02-16T17:24:03;15.50;99.90
47090;DHT22;32840;52.516;13.294;2024-02-16T17:30:27;15.50;99.90
47090;DHT22;32840;52.516;13.294;2024-02-16T17:33:31;15.40;99.90
47090;DHT22;32840;52.516;13.294;2024-02-16T17:36:48;15.40;99.90
47090;DHT22;32840;52.516;13.294;2024-02-16T17:43:41;15.40;99.90
47090;DHT22;32840;52.516;13.294;2024-02-16T17:46:29;15.40;99.90
47090;DHT22;32840;52.516;13.294;2024-02-16T17:49:53;15.40;99.90
47090;DHT22;32840;52.516;13.294;2024-02-16T17:53:16;15.40;99.90
47090;DHT22;32840;52.516;13.294;2024-02-16T17:56:14;15.40;99.90
47090;DHT22;32840;52.516;13.294;2024-02-16T17:59:03;15.30;99.90
47090;DHT22;32840;52.516;13.294;2024-02-16T18:01:48;15.40;99.90
47090;DHT22;32840;52.516;13.294;2024-02-16T18:04:32;15.40;99.90
47090;DHT22;32840;52.516;13.294;2024-02-16T18:07:55;15.40;99.90
47090;DHT22;32840;52.516;13.294;2024-02-16T18:11:08;15.40;99.90
47090;DHT22;32840;52.516;13.294;2024-02-16T18:21:54;15.40;99.90
47090;DHT22;32840;52.516;13.294;2024-02-16T18:24:48;15.40;99.90
47090;DHT22;32840;52.516;13.294;2024-02-16T18:35:12;15.50;99.90
47090;DHT22;32840;52.516;13.294;2024-02-16T18:42:06;15.40;99.90
47090;DHT22;32840;52.516;13.294;2024-02-16T18:44:56;15.40;99.90
47090;DHT22;32840;52.516;13.294;2024-02-16T18:51:41;15.40;99.90
47090;DHT22;32840;52.516;13.294;2024-02-16T18:54:51;15.40;99.90